Babitonga — A8CO2 — position and weather

sailwx.info

Track history (hours):
 
Tides and Currents Weather Stations Pressure Air Temp Water Temp Dewpoint Dewpoint Depression Visibility Wind Speed Wind Dir Waves Ship Positions

Babitonga

Last reported at 2015-Jan-20 20:25 UTC. Time now 2015-Jan-31 10:07 UTC.
Position S 28°07' E 113°06'.
Warning: this ship's position is 10 days out of date.

Length 225 m; beam 32.3 m; draft 13 m.

Type: Cargo ship. MMSI: 636090672.

Date/timePositionNaut miles runAvg speedWind from/ knotsBaromVisibWave heightAir tempDewpointWater temp
2015-Jan-20 20:25S 28°07' E 113°06'1011.2
2015-Jan-20 19:33S 28°17' E 113°08'1311.9
2015-Jan-20 18:28S 28°30' E 113°11'1112.3
2015-Jan-20 17:33S 28°40' E 113°14'1313.2
2015-Jan-20 16:33S 28°53' E 113°17'1313.0
2015-Jan-20 15:33S 29°06' E 113°20'1312.7
2015-Jan-20 14:33S 29°18' E 113°23'1212.4
2015-Jan-20 13:33S 29°31' E 113°26'1212.1
2015-Jan-20 12:33S 29°43' E 113°28'1211.9
2015-Jan-20 11:33S 29°54' E 113°31'1211.6
2015-Jan-20 10:33S 30°06' E 113°34'1111.3
2015-Jan-20 09:34S 30°17' E 113°36'1111.4
2015-Jan-20 08:33S 30°28' E 113°39'1111.5
2015-Jan-20 07:33S 30°39' E 113°41'1111.4
2015-Jan-20 06:33S 30°50' E 113°44'1111.3
2015-Jan-20 05:33S 31°01' E 113°47'1212.0
2015-Jan-20 04:33S 31°13' E 113°50'1212.1
2015-Jan-20 03:33S 31°25' E 113°53'1312.7
2015-Jan-20 02:33S 31°37' E 113°55'1313.0
2015-Jan-20 01:33S 31°50' E 113°58'1413.0
2015-Jan-20 00:29S 32°04' E 114°02'1312.9
2015-Jan-19 23:30S 32°16' E 114°05'1212.4
2015-Jan-19 22:33S 32°27' E 114°07'5212.0
2015-Jan-19 18:14S 33°18' E 114°20'811.4
2015-Jan-19 17:33S 33°26' E 114°22'1111.2
2015-Jan-19 16:33S 33°37' E 114°26'1211.1
2015-Jan-19 15:28S 33°47' E 114°32'2311.3
2015-Jan-19 13:29S 34°08' E 114°44'265 9.7
2015-Jan-18 10:14S 34°37' E 120°03'  
Track history (hours):
 
Tides and Currents Weather Stations Pressure Air Temp Water Temp Dewpoint Dewpoint Depression Visibility Wind Speed Wind Dir Waves Ship Positions

Babitonga

Last reported at 2015-Jan-20 20:25 UTC. Time now 2015-Jan-31 10:07 UTC.
Position S 28°07' E 113°06'.
Warning: this ship's position is 10 days out of date.

Length 225 m; beam 32.3 m; draft 13 m.

Type: Cargo ship. MMSI: 636090672.

Date/timePositionNaut miles runAvg speedWind from/ knotsBaromVisibWave heightAir tempDewpointWater temp
2015-Jan-20 20:25S 28°07' E 113°06'1011.2
2015-Jan-20 19:33S 28°17' E 113°08'1311.9
2015-Jan-20 18:28S 28°30' E 113°11'1112.3
2015-Jan-20 17:33S 28°40' E 113°14'1313.2
2015-Jan-20 16:33S 28°53' E 113°17'1313.0
2015-Jan-20 15:33S 29°06' E 113°20'1312.7
2015-Jan-20 14:33S 29°18' E 113°23'1212.4
2015-Jan-20 13:33S 29°31' E 113°26'1212.1
2015-Jan-20 12:33S 29°43' E 113°28'1211.9
2015-Jan-20 11:33S 29°54' E 113°31'1211.6
2015-Jan-20 10:33S 30°06' E 113°34'1111.3
2015-Jan-20 09:34S 30°17' E 113°36'1111.4
2015-Jan-20 08:33S 30°28' E 113°39'1111.5
2015-Jan-20 07:33S 30°39' E 113°41'1111.4
2015-Jan-20 06:33S 30°50' E 113°44'1111.3
2015-Jan-20 05:33S 31°01' E 113°47'1212.0
2015-Jan-20 04:33S 31°13' E 113°50'1212.1
2015-Jan-20 03:33S 31°25' E 113°53'1312.7
2015-Jan-20 02:33S 31°37' E 113°55'1313.0
2015-Jan-20 01:33S 31°50' E 113°58'1413.0
2015-Jan-20 00:29S 32°04' E 114°02'1312.9
2015-Jan-19 23:30S 32°16' E 114°05'1212.4
2015-Jan-19 22:33S 32°27' E 114°07'5212.0
2015-Jan-19 18:14S 33°18' E 114°20'811.4
2015-Jan-19 17:33S 33°26' E 114°22'1111.2
2015-Jan-19 16:33S 33°37' E 114°26'1211.1
2015-Jan-19 15:28S 33°47' E 114°32'2311.3
2015-Jan-19 13:29S 34°08' E 114°44'265 9.7
2015-Jan-18 10:14S 34°37' E 120°03'  

Dump ship's entire track history